Time;durP1;ratioP1;P1;durP2;ratioP2;P2;SDS_P1;SDS_P2;PMS_P1;PMS_P2;Temp;Humidity;BMP_temperature;BMP_pressure;BME280_temperature;BME280_humidity;BME280_pressure;Samples;Min_cycle;Max_cycle;Signal;HPM_P1;HPM_P2
2021/08/27 00:02:03;;;;;;;6.93;3.58;;;14.50;84.50;;;14.70;64.84;97419.28;4986212;28;20225;-41
2021/08/27 00:04:32;;;;;;;7.75;3.08;;;14.50;84.20;;;14.66;65.13;97415.31;4986330;28;20042;-40
2021/08/27 00:07:00;;;;;;;5.22;2.75;;;14.50;84.60;;;14.64;65.19;97417.38;4985016;28;20068;-40
2021/08/27 00:09:28;;;;;;;5.70;2.70;;;14.50;84.90;;;14.66;65.11;97417.19;4986681;28;20058;-40
2021/08/27 00:11:56;;;;;;;4.00;2.72;;;14.50;84.90;;;14.63;65.24;97410.34;4985115;28;20058;-40
2021/08/27 00:14:25;;;;;;;4.65;2.78;;;14.40;85.10;;;14.64;65.40;97417.38;4985958;28;20054;-40
2021/08/27 00:16:54;;;;;;;6.07;3.33;;;14.40;85.30;;;14.66;65.23;97409.97;4986061;28;20163;-40
2021/08/27 00:19:22;;;;;;;6.10;3.20;;;14.50;85.30;;;14.68;65.34;97415.13;4987564;28;20046;-41
2021/08/27 00:21:50;;;;;;;8.07;3.40;;;14.50;85.30;;;14.73;65.20;97413.53;4987535;28;20351;-41
2021/08/27 00:24:18;;;;;;;5.72;3.05;;;14.50;85.20;;;14.77;65.36;97411.28;4985504;28;20258;-40
2021/08/27 00:26:46;;;;;;;8.80;4.07;;;14.60;85.00;;;14.77;65.19;97412.13;4988055;28;20271;-41
2021/08/27 00:29:14;;;;;;;6.13;2.70;;;14.60;85.00;;;14.80;65.11;97416.25;4984824;28;20050;-40
2021/08/27 00:31:41;;;;;;;5.32;3.28;;;14.60;84.90;;;14.84;65.15;97414.84;4984073;28;20348;-40
2021/08/27 00:34:09;;;;;;;4.60;2.60;;;14.70;84.70;;;14.87;64.99;97416.31;4984493;28;20251;-41
2021/08/27 00:36:37;;;;;;;6.97;3.20;;;14.70;84.60;;;14.87;65.23;97418.97;4984893;28;20064;-41
2021/08/27 00:39:05;;;;;;;7.47;3.08;;;14.70;84.40;;;14.86;64.97;97428.06;4986130;28;20050;-40
2021/08/27 00:41:33;;;;;;;6.22;3.00;;;14.70;84.60;;;14.85;64.69;97426.38;4984857;28;20050;-40
2021/08/27 00:44:01;;;;;;;6.93;3.20;;;14.70;84.60;;;14.88;64.98;97421.47;4987621;28;20072;-41
2021/08/27 00:46:28;;;;;;;5.78;3.00;;;14.70;84.50;;;14.87;64.99;97425.19;4986867;28;20255;-40
2021/08/27 00:48:56;;;;;;;4.53;3.22;;;14.70;84.40;;;14.84;65.03;97416.72;4985902;28;20471;-40
2021/08/27 00:51:24;;;;;;;5.40;2.95;;;14.60;84.50;;;14.84;64.96;97425.56;4984674;28;20062;-40
2021/08/27 00:53:52;;;;;;;4.93;3.15;;;14.70;84.70;;;14.83;65.35;97426.59;4985758;28;20374;-40
2021/08/27 00:56:20;;;;;;;5.55;3.20;;;14.60;84.60;;;14.74;65.40;97419.72;4984307;28;20268;-40
2021/08/27 00:58:48;;;;;;;7.07;3.72;;;14.50;85.20;;;14.79;65.38;97429.84;4984806;28;20065;-40
2021/08/27 01:01:16;;;;;;;7.20;3.83;;;14.60;85.20;;;14.82;65.29;97418.75;4984612;28;20484;-40
2021/08/27 01:03:44;;;;;;;5.95;3.22;;;14.60;85.20;;;14.86;65.34;97425.38;4986236;28;20048;-40
2021/08/27 01:06:41;;;;;;;8.23;3.25;;;14.70;85.10;;;14.89;65.21;97427.69;4984631;28;20330;-41
2021/08/27 01:09:44;;;;;;;4.32;3.13;;;14.70;85.10;;;14.86;65.40;97430.75;4984219;28;20050;-41
2021/08/27 01:12:21;;;;;;;3.47;2.67;;;14.70;85.00;;;14.90;65.23;97423.97;4979087;28;20263;-41
2021/08/27 01:15:00;;;;;;;7.03;3.25;;;14.70;85.30;;;14.94;65.23;97425.22;4985844;28;20070;-40
2021/08/27 01:17:40;;;;;;;6.30;3.30;;;14.80;85.20;;;14.95;65.22;97430.41;4983551;28;20062;-41
2021/08/27 01:20:55;;;;;;;7.32;3.40;;;14.80;85.00;;;14.90;65.32;97423.97;4984739;28;20080;-40
2021/08/27 01:23:47;;;;;;;4.95;3.53;;;14.70;85.40;;;14.90;65.17;97422.09;4977624;28;20239;-40
2021/08/27 01:26:20;;;;;;;5.65;3.20;;;14.60;85.70;;;14.83;65.48;97428.44;4986094;28;20046;-40
2021/08/27 01:28:51;;;;;;;5.65;3.65;;;14.60;86.20;;;14.84;65.73;97424.75;4986621;28;20217;-40
2021/08/27 01:31:54;;;;;;;6.95;3.45;;;14.60;86.30;;;14.80;65.49;97426.97;4989141;28;20050;-40
2021/08/27 01:34:33;;;;;;;6.05;3.60;;;14.60;86.50;;;14.70;66.58;97421.94;4989294;28;20058;-40
2021/08/27 01:37:03;;;;;;;7.40;3.28;;;14.50;86.50;;;14.70;66.32;97419.28;4987875;28;20046;-40
2021/08/27 01:39:37;;;;;;;5.95;3.45;;;14.50;87.00;;;14.72;66.18;97427.94;4988835;28;20060;-40
2021/08/27 01:42:10;;;;;;;5.75;2.83;;;14.50;86.90;;;14.73;66.08;97420.72;4988699;28;20060;-40
2021/08/27 01:44:39;;;;;;;6.43;3.65;;;14.50;86.60;;;14.77;65.90;97424.69;4987345;28;20260;-40
2021/08/27 01:47:08;;;;;;;5.78;2.97;;;14.60;86.50;;;14.77;66.28;97425.53;4989585;28;20050;-40
2021/08/27 01:49:36;;;;;;;4.45;3.05;;;14.60;86.20;;;14.79;66.09;97428.00;4988416;28;20054;-40
2021/08/27 01:52:08;;;;;;;6.80;2.65;;;14.60;86.50;;;14.88;66.11;97423.34;4988619;28;20355;-40
2021/08/27 01:54:38;;;;;;;6.35;3.13;;;14.70;86.30;;;14.94;65.89;97427.91;4989143;28;20061;-40
2021/08/27 01:57:07;;;;;;;6.75;3.42;;;14.80;85.70;;;14.85;65.98;97419.19;4987215;28;20062;-40
2021/08/27 01:59:40;;;;;;;7.40;3.28;;;14.70;85.90;;;14.80;66.47;97426.16;4988372;28;20070;-40
2021/08/27 02:02:11;;;;;;;5.90;3.13;;;14.60;86.50;;;14.80;65.98;97426.16;4988097;28;20666;-40
2021/08/27 02:04:48;;;;;;;5.57;3.17;;;14.60;86.60;;;14.86;66.09;97430.75;4988152;28;20101;-40
2021/08/27 02:07:17;;;;;;;9.13;3.70;;;14.70;86.70;;;14.79;66.17;97429.84;4987075;28;20058;-40
2021/08/27 02:09:48;;;;;;;5.03;3.35;;;14.60;86.70;;;14.84;66.19;97430.09;4986055;28;20056;-40
2021/08/27 02:12:16;;;;;;;4.05;3.22;;;14.60;86.70;;;14.86;66.20;97428.88;4987014;28;20054;-41
2021/08/27 02:14:48;;;;;;;8.07;3.55;;;14.70;86.70;;;14.87;66.19;97429.69;4986518;28;20279;-40
2021/08/27 02:17:16;;;;;;;5.25;3.20;;;14.70;86.70;;;14.82;66.34;97429.47;4987237;28;20587;-40
2021/08/27 02:19:44;;;;;;;6.30;3.40;;;14.60;86.90;;;14.83;66.10;97429.28;4987905;28;20052;-40
2021/08/27 02:22:16;;;;;;;7.72;3.55;;;14.60;86.90;;;14.79;66.46;97437.88;4987502;28;20343;-41
2021/08/27 02:25:01;;;;;;;5.30;3.35;;;14.60;87.00;;;14.80;66.13;97429.66;4986793;28;20042;-41
2021/08/27 02:27:32;;;;;;;5.40;3.38;;;14.60;87.50;;;14.82;66.36;97434.84;4986174;28;20333;-40
2021/08/27 02:30:01;;;;;;;5.15;3.78;;;14.60;87.20;;;14.83;66.37;97441.84;4986463;28;20344;-40
2021/08/27 02:32:30;;;;;;;7.28;4.53;;;14.60;87.10;;;14.86;66.40;97434.25;4986764;28;20042;-40
2021/08/27 02:35:02;;;;;;;8.02;5.10;;;14.70;87.10;;;14.81;66.62;97439.38;4986389;28;20065;-40
2021/08/27 02:37:36;;;;;;;7.50;3.78;;;14.60;87.70;;;14.71;67.10;97436.16;4988799;28;20378;-40
2021/08/27 02:40:06;;;;;;;4.68;3.83;;;14.50;88.50;;;14.68;67.13;97441.94;4986132;28;20515;-40
2021/08/27 02:42:34;;;;;;;6.32;3.90;;;14.40;89.40;;;14.65;67.45;97439.63;4987103;28;20279;-40
2021/08/27 02:45:05;;;;;;;5.30;4.22;;;14.40;89.80;;;14.64;67.56;97435.31;4989118;28;20053;-40
2021/08/27 02:47:33;;;;;;;5.15;4.10;;;14.40;90.00;;;14.55;67.89;97430.03;4987211;28;20050;-40
2021/08/27 02:50:02;;;;;;;7.97;3.92;;;14.30;90.50;;;14.57;67.80;97435.22;4986507;28;20064;-41
2021/08/27 02:52:59;;;;;;;10.13;4.40;;;14.30;90.80;;;14.47;67.88;97435.50;4987932;28;20364;-40
2021/08/27 02:55:35;;;;;;;5.93;5.32;;;14.20;91.80;;;14.47;68.19;97435.50;4988276;28;20051;-40
2021/08/27 02:58:26;;;;;;;5.72;4.40;;;14.20;91.80;;;14.40;68.29;97439.16;4988635;28;20057;-40
2021/08/27 03:01:20;;;;;;;9.50;4.72;;;14.10;92.40;;;14.39;68.55;97438.31;4987617;28;20058;-40
2021/08/27 03:04:28;;;;;;;5.90;4.00;;;14.10;93.10;;;14.42;68.26;97445.13;4987687;28;20062;-40
2021/08/27 03:07:06;;;;;;;10.35;5.15;;;14.20;93.00;;;14.43;68.61;97449.50;4987412;28;20251;-40
2021/08/27 03:09:41;;;;;;;6.50;4.32;;;14.10;92.80;;;14.46;68.73;97451.75;4987293;28;20182;-40
2021/08/27 03:12:13;;;;;;;8.80;5.32;;;14.20;92.80;;;14.47;68.69;97451.59;4986721;28;20058;-40
2021/08/27 03:14:53;;;;;;;8.48;5.88;;;14.20;92.30;;;14.47;68.78;97440.03;4985962;28;20058;-40
2021/08/27 03:17:26;;;;;;;6.53;4.85;;;14.20;92.40;;;14.45;68.63;97437.56;4970806;28;20244;-40
2021/08/27 03:20:19;;;;;;;6.63;5.47;;;14.20;92.50;;;14.47;68.56;97429.34;4987249;28;20058;-40
2021/08/27 03:23:11;;;;;;;8.52;5.90;;;14.30;92.60;;;14.31;69.76;97427.75;4986055;28;20054;-40
2021/08/27 03:25:43;;;;;;;7.72;5.50;;;14.10;93.40;;;14.32;69.02;97432.88;4984927;28;20069;-40
2021/08/27 03:28:24;;;;;;;8.23;6.00;;;14.00;93.90;;;14.35;69.06;97429.00;4985693;28;20240;-40
2021/08/27 03:30:55;;;;;;;10.68;6.30;;;14.00;93.50;;;14.19;70.00;97432.75;4985589;28;20282;-40
2021/08/27 03:33:26;;;;;;;8.07;6.13;;;13.90;94.10;;;14.14;69.85;97433.31;4986208;28;20050;-40
2021/08/27 03:35:55;;;;;;;7.07;5.25;;;13.90;94.50;;;14.12;70.20;97435.34;4983492;28;20054;-40
2021/08/27 03:38:24;;;;;;;10.00;6.50;;;13.90;95.00;;;14.09;70.11;97429.53;4986769;28;20054;-40
2021/08/27 03:40:53;;;;;;;9.60;5.75;;;13.80;94.60;;;14.11;70.03;97425.69;4987126;28;20065;-40
2021/08/27 03:43:23;;;;;;;8.70;5.82;;;13.90;94.70;;;14.18;69.67;97426.56;4983903;28;20052;-40
2021/08/27 03:45:52;;;;;;;10.85;6.75;;;13.90;94.30;;;14.23;69.68;97425.16;4986336;28;20386;-40
2021/08/27 03:48:21;;;;;;;8.13;6.03;;;14.00;94.00;;;14.20;69.94;97431.72;4985114;28;20054;-40
2021/08/27 03:50:53;;;;;;;8.82;6.32;;;14.00;93.90;;;14.18;70.00;97431.09;4984839;28;20065;-40
2021/08/27 03:53:22;;;;;;;8.82;5.80;;;13.80;94.40;;;14.16;69.88;97435.81;4986407;28;20066;-40
2021/08/27 03:55:52;;;;;;;10.95;5.93;;;13.90;94.90;;;14.18;69.81;97444.47;4985914;28;20060;-40
2021/08/27 03:58:23;;;;;;;11.43;6.07;;;13.90;94.50;;;14.22;69.69;97435.03;4984896;28;20058;-40
2021/08/27 04:00:55;;;;;;;9.48;6.40;;;13.90;94.20;;;14.21;69.84;97435.22;4986089;28;20386;-40
2021/08/27 04:03:23;;;;;;;7.90;5.72;;;13.90;94.20;;;14.20;69.91;97437.09;4986042;28;20050;-40
2021/08/27 04:06:03;;;;;;;10.57;6.00;;;13.90;94.20;;;14.21;69.72;97443.25;4986280;28;20050;-40
2021/08/27 04:08:36;;;;;;;8.88;5.97;;;13.90;94.70;;;14.23;69.78;97443.91;4985438;28;20067;-40
2021/08/27 04:11:06;;;;;;;9.80;6.00;;;13.90;94.30;;;14.21;69.93;97454.81;4985653;28;20050;-40
2021/08/27 04:13:35;;;;;;;13.32;6.90;;;13.90;94.20;;;14.23;69.97;97450.09;4985671;28;20064;-41
2021/08/27 04:16:04;;;;;;;10.23;6.50;;;13.90;94.30;;;14.24;69.84;97454.44;4986859;28;20058;-40
2021/08/27 04:18:31;;;;;;;10.30;6.55;;;14.00;94.40;;;14.23;70.04;97454.59;4984876;28;20060;-40
2021/08/27 04:21:00;;;;;;;8.77;6.20;;;13.90;94.30;;;14.25;69.79;97455.25;4986900;28;20072;-40
2021/08/27 04:23:29;;;;;;;9.13;6.03;;;14.00;94.10;;;14.25;69.88;97449.88;4986479;28;20050;-40
2021/08/27 04:25:56;;;;;;;11.10;6.10;;;14.00;94.10;;;14.24;70.04;97457.09;4985561;28;20359;-40
2021/08/27 04:28:24;;;;;;;9.60;6.78;;;14.00;94.10;;;14.28;69.92;97454.88;4984588;28;20248;-40
2021/08/27 04:30:53;;;;;;;11.77;7.57;;;14.00;94.10;;;14.16;70.32;97460.72;4984569;28;20088;-40
2021/08/27 04:33:21;;;;;;;8.90;6.75;;;14.00;93.90;;;14.06;70.63;97460.19;4985725;28;20058;-40
2021/08/27 04:35:49;;;;;;;11.60;7.72;;;13.80;94.70;;;14.09;70.40;97459.00;4987037;28;20365;-40
2021/08/27 04:38:17;;;;;;;9.27;7.00;;;13.80;94.80;;;14.05;70.30;97458.53;4985474;28;20256;-40
2021/08/27 04:40:45;;;;;;;10.45;7.53;;;13.80;95.00;;;14.01;70.30;97457.25;4986708;28;20054;-40
2021/08/27 04:43:12;;;;;;;12.00;7.10;;;13.70;95.10;;;14.04;70.53;97461.41;4987207;28;20394;-40
2021/08/27 04:45:40;;;;;;;11.30;7.05;;;13.80;95.20;;;14.07;70.50;97463.69;4986074;28;20050;-40
2021/08/27 04:48:08;;;;;;;9.40;7.28;;;13.80;95.10;;;13.98;70.72;97469.16;4985354;28;20054;-40
2021/08/27 04:50:36;;;;;;;11.77;8.43;;;13.70;95.20;;;13.84;71.58;97467.34;4985900;28;20225;-40
2021/08/27 04:53:04;;;;;;;9.20;7.05;;;13.70;96.10;;;13.90;70.98;97471.09;4984764;28;20054;-40
2021/08/27 04:55:32;;;;;;;10.07;6.90;;;13.70;96.00;;;13.82;71.45;97471.22;4985727;28;20050;-40
2021/08/27 04:58:00;;;;;;;11.10;8.07;;;13.60;95.60;;;13.83;71.27;97475.56;4984947;28;20062;-40
2021/08/27 05:00:28;;;;;;;9.82;6.90;;;13.60;95.90;;;13.72;71.56;97477.66;4987544;28;20512;-40
2021/08/27 05:02:56;;;;;;;10.45;7.40;;;13.50;95.90;;;13.60;72.17;97479.16;4985835;28;20068;-40
2021/08/27 05:05:25;;;;;;;9.77;7.45;;;13.50;96.20;;;13.71;71.92;97480.56;4987055;28;20064;-40
2021/08/27 05:07:53;;;;;;;10.30;6.05;;;13.60;96.40;;;13.80;71.58;97479.41;4985442;28;20046;-40
2021/08/27 05:10:21;;;;;;;10.65;6.35;;;13.60;95.90;;;13.76;71.55;97486.16;4984740;28;20058;-40
2021/08/27 05:12:49;;;;;;;9.43;6.30;;;13.60;95.70;;;13.68;72.14;97494.28;4987234;28;20260;-40
2021/08/27 05:15:17;;;;;;;8.20;5.60;;;13.50;95.90;;;13.57;72.48;97493.72;4985483;28;20256;-40
2021/08/27 05:17:45;;;;;;;7.82;5.60;;;13.50;96.80;;;13.62;72.04;97501.19;4985325;28;20054;-40
2021/08/27 05:20:13;;;;;;;7.78;5.82;;;13.50;96.60;;;13.66;72.14;97501.66;4984726;28;20064;-40
2021/08/27 05:22:40;;;;;;;9.52;5.72;;;13.50;96.50;;;13.62;72.38;97508.41;4987548;28;20165;-40
2021/08/27 05:25:09;;;;;;;7.10;5.78;;;13.50;96.50;;;13.61;72.23;97510.25;4966304;28;20047;-41
2021/08/27 05:27:38;;;;;;;12.63;6.32;;;13.50;96.40;;;13.60;72.17;97508.56;4948123;28;20245;-40
2021/08/27 05:30:10;;;;;;;10.48;6.50;;;13.40;96.30;;;13.66;72.07;97502.47;4947011;29;20073;-40
2021/08/27 05:32:39;;;;;;;9.23;6.50;;;13.50;96.20;;;13.68;72.02;97513.00;4946268;29;20047;-40
2021/08/27 05:35:07;;;;;;;9.60;7.78;;;13.50;96.20;;;13.79;71.69;97515.22;4947716;28;20253;-40
2021/08/27 05:37:35;;;;;;;11.65;6.40;;;13.70;95.80;;;13.80;71.82;97524.91;4946421;29;20059;-40
2021/08/27 05:40:06;;;;;;;9.88;6.45;;;13.70;95.40;;;13.66;71.87;97525.75;4949196;28;20069;-41
2021/08/27 05:42:36;;;;;;;7.13;5.95;;;13.50;95.60;;;13.76;71.62;97537.84;4947363;29;20287;-40
2021/08/27 05:45:06;;;;;;;8.77;6.75;;;13.60;95.80;;;13.66;72.00;97531.09;4958024;28;20202;-40
2021/08/27 05:47:37;;;;;;;7.85;5.60;;;13.50;95.40;;;13.59;72.15;97533.69;4965597;28;20055;-40
2021/08/27 05:50:06;;;;;;;8.88;5.70;;;13.50;95.70;;;13.72;71.80;97538.38;4965893;28;20058;-40
2021/08/27 05:52:34;;;;;;;6.40;5.00;;;13.50;96.10;;;13.66;71.90;97541.78;4965305;28;20053;-41
2021/08/27 05:55:03;;;;;;;10.00;5.72;;;13.50;95.60;;;13.71;71.92;97544.75;4964064;28;20065;-40
2021/08/27 05:57:32;;;;;;;9.35;6.30;;;13.50;95.60;;;13.69;71.89;97546.78;4965265;28;20055;-39
2021/08/27 06:00:01;;;;;;;7.32;5.72;;;13.50;95.30;;;13.64;71.71;97543.81;4964570;28;20084;-40
2021/08/27 06:02:31;;;;;;;7.57;5.93;;;13.50;95.50;;;13.62;71.76;97548.53;4966851;28;20226;-39
2021/08/27 06:04:59;;;;;;;9.48;5.82;;;13.50;96.00;;;13.63;72.00;97536.78;4964285;28;20053;-40
2021/08/27 06:07:28;;;;;;;8.15;5.97;;;13.50;95.80;;;13.54;72.24;97544.91;4966524;28;20062;-39
2021/08/27 06:09:56;;;;;;;7.20;6.03;;;13.50;95.60;;;13.48;72.37;97542.97;4965499;28;20062;-41
2021/08/27 06:12:24;;;;;;;8.45;6.90;;;13.40;95.50;;;13.41;72.59;97543.88;4965823;28;20277;-39
2021/08/27 06:14:52;;;;;;;10.23;6.78;;;13.30;95.90;;;13.55;72.37;97540.38;4967658;28;20057;-40
2021/08/27 06:17:20;;;;;;;6.80;6.15;;;13.40;96.30;;;13.56;72.42;97539.38;4969137;28;20062;-40
2021/08/27 06:19:48;;;;;;;11.77;6.20;;;13.50;96.10;;;13.64;72.29;97550.00;4968822;28;20046;-40
2021/08/27 06:22:16;;;;;;;6.97;5.75;;;13.60;96.20;;;13.72;72.12;97547.22;4968999;28;20202;-40
2021/08/27 06:24:44;;;;;;;6.50;5.15;;;13.70;95.80;;;13.74;72.21;97547.88;4969555;28;20237;-39
2021/08/27 06:27:12;;;;;;;8.80;5.18;;;13.70;95.10;;;13.71;72.17;97550.94;4968817;28;20039;-40
2021/08/27 06:29:42;;;;;;;8.02;6.45;;;13.70;95.10;;;13.59;72.52;97547.88;4970309;28;20333;-40
2021/08/27 06:32:10;;;;;;;9.88;5.72;;;13.60;95.80;;;13.77;72.44;97552.88;4968323;28;20322;-39
2021/08/27 06:34:38;;;;;;;6.70;5.15;;;13.80;95.90;;;13.67;72.43;97546.97;4967665;28;20059;-40
2021/08/27 06:37:06;;;;;;;10.20;5.63;;;13.70;95.20;;;13.81;72.23;97552.50;4966930;28;20240;-40
2021/08/27 06:39:34;;;;;;;8.82;5.28;;;13.80;94.70;;;13.99;71.96;97555.63;4966793;28;20267;-40
2021/08/27 06:42:03;;;;;;;9.25;5.40;;;14.00;94.60;;;14.06;71.58;97555.75;4949222;29;20073;-40
2021/08/27 06:44:31;;;;;;;6.10;4.85;;;14.10;93.20;;;13.99;71.48;97552.97;4950059;29;20051;-40
2021/08/27 06:46:59;;;;;;;5.28;4.60;;;14.00;93.20;;;13.99;71.30;97558.31;4949779;28;20051;-40
2021/08/27 06:49:27;;;;;;;9.98;5.55;;;13.90;93.10;;;14.02;70.88;97557.94;4948739;29;20051;-39
2021/08/27 06:51:55;;;;;;;8.50;4.68;;;13.90;93.40;;;14.01;70.87;97566.16;4948559;29;20047;-39
2021/08/27 06:54:23;;;;;;;6.47;3.88;;;13.90;92.70;;;13.96;70.92;97556.84;4949583;28;20077;-40
2021/08/27 06:56:51;;;;;;;7.55;4.60;;;13.90;92.60;;;13.93;70.96;97561.72;4950140;29;20061;-40
2021/08/27 06:59:19;;;;;;;6.32;4.68;;;13.80;93.60;;;13.91;71.00;97566.44;4948804;29;20063;-40
2021/08/27 07:01:47;;;;;;;5.90;3.80;;;13.90;92.70;;;13.91;71.09;97571.78;4948741;29;20369;-40
2021/08/27 07:04:15;;;;;;;4.72;3.88;;;13.90;93.30;;;13.87;70.75;97571.31;4949130;28;20059;-39
2021/08/27 07:06:43;;;;;;;5.78;3.70;;;13.90;91.70;;;13.79;71.23;97563.38;4949114;29;20043;-40
2021/08/27 07:09:11;;;;;;;9.30;3.65;;;13.90;92.50;;;14.00;70.98;97565.34;4949306;28;20066;-40
2021/08/27 07:11:39;;;;;;;6.00;3.80;;;14.00;93.10;;;13.99;70.75;97563.66;4948987;29;20238;-40
2021/08/27 07:14:08;;;;;;;5.50;3.90;;;14.00;92.00;;;13.92;70.57;97570.75;4949338;28;20069;-40
2021/08/27 07:16:36;;;;;;;6.60;3.83;;;13.90;91.50;;;13.93;70.31;97572.44;4948237;29;20069;-41
2021/08/27 07:19:04;;;;;;;6.63;3.85;;;13.90;92.00;;;13.77;70.69;97581.47;4947645;29;20245;-40
2021/08/27 07:21:36;;;;;;;9.30;3.80;;;13.80;91.80;;;13.85;70.40;97572.53;4948143;29;20063;-40
2021/08/27 07:24:04;;;;;;;7.80;3.85;;;13.80;92.10;;;14.02;70.31;97578.53;4947955;29;20051;-40
2021/08/27 07:26:32;;;;;;;7.88;3.38;;;14.00;92.00;;;13.99;69.67;97579.72;4961503;28;20251;-40
2021/08/27 07:29:01;;;;;;;5.57;3.55;;;14.00;90.20;;;14.07;69.67;97582.28;4966606;28;20336;-40
2021/08/27 07:31:29;;;;;;;5.80;3.50;;;14.10;90.30;;;14.18;69.60;97570.31;4966976;28;20050;-40
2021/08/27 07:33:56;;;;;;;6.85;3.28;;;14.20;90.40;;;14.27;69.38;97569.19;4967789;28;20042;-40
2021/08/27 07:36:24;;;;;;;6.00;3.63;;;14.40;89.50;;;14.26;68.88;97574.72;4968628;28;20058;-40
2021/08/27 07:38:52;;;;;;;6.68;3.00;;;14.40;88.30;;;14.39;68.95;97569.53;4968919;28;20065;-40
2021/08/27 07:41:20;;;;;;;11.40;3.58;;;14.60;88.40;;;14.50;68.18;97568.22;4968445;28;20226;-40
2021/08/27 07:43:48;;;;;;;5.97;3.03;;;14.70;86.90;;;14.56;67.78;97580.88;4967570;28;20046;-40
2021/08/27 07:46:15;;;;;;;8.45;3.28;;;14.80;86.40;;;14.64;67.03;97582.66;4965753;28;20457;-40
2021/08/27 07:48:43;;;;;;;6.18;3.38;;;14.80;84.40;;;14.64;67.29;97580.78;4967862;28;20055;-40
2021/08/27 07:51:11;;;;;;;5.15;2.50;;;14.90;85.50;;;14.71;66.99;97579.03;4966566;28;20054;-40
2021/08/27 07:53:39;;;;;;;4.78;2.60;;;14.90;85.50;;;14.70;66.18;97596.13;4966558;28;20053;-41
2021/08/27 07:56:07;;;;;;;3.28;2.45;;;14.90;84.40;;;14.62;64.56;97592.69;4967953;28;20372;-40
2021/08/27 07:58:35;;;;;;;3.80;2.22;;;14.70;81.00;;;14.59;65.38;97585.88;4966261;28;20046;-40
2021/08/27 08:01:03;;;;;;;5.93;2.45;;;14.60;83.80;;;14.63;65.45;97584.47;4963675;28;20064;-40
2021/08/27 08:03:31;;;;;;;3.22;2.20;;;14.60;83.20;;;14.60;65.22;97584.88;4964949;28;20081;-40
2021/08/27 08:05:59;;;;;;;3.30;2.03;;;14.60;82.20;;;14.62;64.70;97592.69;4966191;28;20054;-39
2021/08/27 08:08:26;;;;;;;6.65;2.30;;;14.70;82.10;;;14.69;65.24;97589.09;4965289;28;20055;-40
2021/08/27 08:10:54;;;;;;;2.88;2.20;;;14.70;83.30;;;14.62;63.65;97590.03;4961883;28;20070;-40
2021/08/27 08:13:22;;;;;;;3.45;2.40;;;14.70;80.10;;;14.56;64.85;97587.09;4965177;28;20051;-40
2021/08/27 08:15:50;;;;;;;4.35;2.17;;;14.70;82.30;;;14.66;64.82;97594.00;4964664;28;20077;-40
2021/08/27 08:18:18;;;;;;;3.33;2.20;;;14.80;82.20;;;14.83;64.73;97583.88;4965367;28;20248;-41
2021/08/27 08:20:46;;;;;;;6.78;2.60;;;15.00;82.10;;;14.85;64.77;97581.84;4966581;28;20065;-40
2021/08/27 08:23:16;;;;;;;3.10;2.17;;;15.00;82.00;;;14.88;64.16;97587.66;4966472;28;20054;-40
2021/08/27 08:25:43;;;;;;;5.50;2.38;;;15.10;81.60;;;14.87;63.77;97591.38;4967234;28;20718;-41
2021/08/27 08:28:13;;;;;;;5.20;2.97;;;14.90;81.40;;;14.90;63.27;97598.19;4964708;28;20055;-41
2021/08/27 08:30:43;;;;;;;6.97;2.30;;;15.00;80.70;;;14.99;63.21;97598.91;4967658;28;20053;-40
2021/08/27 08:33:11;;;;;;;2.47;1.92;;;15.10;80.80;;;14.99;63.12;97594.38;4965581;28;20046;-42
2021/08/27 08:35:39;;;;;;;4.40;2.55;;;15.20;80.00;;;15.03;62.74;97594.81;4966632;28;20080;-40
2021/08/27 08:38:07;;;;;;;2.65;2.30;;;15.20;78.80;;;14.98;62.31;97602.59;4966563;28;20259;-40
2021/08/27 08:40:42;;;;;;;6.20;3.25;;;15.20;78.40;;;14.92;61.43;97601.50;4966201;28;20067;-40
2021/08/27 08:43:12;;;;;;;2.92;1.95;;;15.10;77.30;;;14.79;61.98;97593.31;4967186;28;20063;-40
2021/08/27 08:45:49;;;;;;;6.95;2.67;;;14.90;78.10;;;14.75;60.53;97603.56;4967157;28;20051;-40
2021/08/27 08:48:20;;;;;;;5.13;2.15;;;14.90;75.60;;;14.86;61.42;97602.25;4966059;28;20050;-40
2021/08/27 08:50:49;;;;;;;5.22;2.38;;;15.00;78.00;;;15.03;61.87;97605.53;4966760;28;20412;-40
2021/08/27 08:53:26;;;;;;;4.47;3.03;;;15.20;78.20;;;15.05;61.70;97603.50;4965004;28;20050;-40
2021/08/27 08:55:54;;;;;;;2.72;2.40;;;15.30;77.00;;;15.09;62.52;97596.75;4966633;28;20054;-40
2021/08/27 08:58:21;;;;;;;3.47;2.80;;;15.40;79.10;;;15.07;60.50;97604.16;4967059;28;20303;-41
2021/08/27 09:00:49;;;;;;;4.45;2.80;;;15.30;75.30;;;15.10;60.39;97606.41;4966126;28;20063;-41
2021/08/27 09:03:17;;;;;;;4.97;2.95;;;15.20;76.40;;;15.07;60.36;97610.31;4964834;28;20615;-40
2021/08/27 09:05:46;;;;;;;5.18;4.20;;;15.20;75.80;;;15.22;61.03;97602.22;4967291;28;20065;-41
2021/08/27 09:08:43;;;;;;;4.57;2.90;;;15.30;76.60;;;15.31;60.63;97608.28;4965043;28;20057;-41
2021/08/27 09:11:24;;;;;;;3.92;3.40;;;15.60;75.90;;;15.34;59.88;97602.53;4963263;28;20050;-41
2021/08/27 09:13:56;;;;;;;4.00;2.63;;;15.60;75.20;;;15.44;60.87;97596.84;4965339;28;20344;-40
2021/08/27 09:16:27;;;;;;;3.30;2.88;;;15.70;76.80;;;15.61;61.19;97594.72;4967206;28;20051;-40
2021/08/27 09:18:55;;;;;;;3.45;2.97;;;15.80;76.80;;;15.72;61.07;97597.72;4965727;28;20236;-40
2021/08/27 09:21:36;;;;;;;5.38;3.13;;;16.00;76.70;;;15.79;60.86;97602.31;4965985;28;20054;-40
2021/08/27 09:24:27;;;;;;;5.47;3.05;;;16.10;76.00;;;15.71;59.39;97609.47;4965780;28;20050;-40
2021/08/27 09:27:00;;;;;;;5.78;3.17;;;16.10;73.70;;;15.74;59.51;97609.09;4965918;28;20043;-40
2021/08/27 09:29:32;;;;;;;7.53;3.15;;;16.00;74.50;;;15.69;58.28;97621.41;4965615;28;20538;-40
2021/08/27 09:32:15;;;;;;;5.03;2.42;;;15.90;72.60;;;15.56;58.40;97619.44;4965893;28;20051;-40
2021/08/27 09:34:44;;;;;;;3.70;1.88;;;15.70;72.40;;;15.50;56.95;97618.34;4966233;28;20356;-40
2021/08/27 09:37:12;;;;;;;4.00;2.22;;;15.60;70.50;;;15.51;57.21;97614.66;4965375;28;20069;-40
2021/08/27 09:39:40;;;;;;;3.60;1.80;;;15.70;71.60;;;15.55;57.39;97610.56;4965688;28;20065;-40
2021/08/27 09:42:08;;;;;;;6.28;3.13;;;15.70;72.00;;;15.73;58.20;97610.13;4967442;28;20066;-40
2021/08/27 09:44:36;;;;;;;6.07;2.30;;;15.90;72.90;;;15.85;57.91;97615.78;4966412;28;20085;-40
2021/08/27 09:47:07;;;;;;;4.43;2.35;;;16.10;71.70;;;15.98;58.06;97604.31;4965075;28;20066;-40
2021/08/27 09:49:37;;;;;;;3.17;1.90;;;16.40;72.10;;;16.16;57.22;97611.03;4966751;28;20055;-40
2021/08/27 09:52:12;;;;;;;8.23;3.70;;;16.60;69.50;;;16.14;55.84;97609.34;4969140;28;20238;-40
2021/08/27 09:54:46;;;;;;;3.72;2.97;;;16.60;67.80;;;16.16;56.75;97611.03;4968571;28;20065;-41
2021/08/27 09:57:14;;;;;;;4.20;2.42;;;16.60;70.30;;;16.22;57.16;97605.69;4966689;28;20059;-40
2021/08/27 09:59:47;;;;;;;3.38;3.08;;;16.50;71.20;;;16.07;55.60;97604.97;4967501;28;20058;-40
2021/08/27 10:02:18;;;;;;;4.28;2.22;;;16.30;68.20;;;16.03;55.02;97614.44;4969428;28;20051;-40
2021/08/27 10:04:52;;;;;;;4.00;2.50;;;16.30;67.60;;;15.88;55.39;97611.91;4970033;28;20268;-41
2021/08/27 10:07:41;;;;;;;4.35;2.30;;;16.10;69.00;;;15.93;55.25;97617.50;4968583;28;20061;-41
2021/08/27 10:10:12;;;;;;;3.28;2.47;;;16.10;68.50;;;16.13;56.73;97606.91;4969480;28;20059;-41
2021/08/27 10:12:46;;;;;;;4.28;2.40;;;16.30;71.20;;;16.19;56.62;97607.94;4968712;28;20062;-41
2021/08/27 10:15:13;;;;;;;;;;;16.40;69.80;;;16.28;56.76;97606.75;4970278;28;20253;-41
2021/08/27 10:17:41;;;;;;;4.38;2.53;;;16.60;70.00;;;16.29;56.85;97611.94;4969383;28;19924;-41
2021/08/27 10:20:11;;;;;;;3.20;2.08;;;16.60;69.80;;;16.42;55.50;97613.88;4969538;28;20523;-41
2021/08/27 10:22:41;;;;;;;4.50;2.78;;;16.70;68.40;;;16.37;55.91;97612.81;4968501;28;20059;-41
2021/08/27 10:25:12;;;;;;;4.03;2.45;;;16.80;68.60;;;16.32;55.26;97605.31;4969861;28;20047;-41
2021/08/27 10:27:47;;;;;;;4.68;2.55;;;16.70;68.50;;;16.40;56.23;97607.00;4966915;28;20061;-41
2021/08/27 10:30:15;;;;;;;3.67;2.38;;;16.60;70.00;;;16.02;53.63;97613.63;4968602;28;20069;-41
2021/08/27 10:32:43;;;;;;;3.72;2.60;;;16.30;65.60;;;16.25;54.58;97615.22;4968409;28;20054;-41
2021/08/27 10:35:24;;;;;;;3.78;2.22;;;16.50;68.10;;;16.24;54.03;97605.50;4970156;28;20383;-41